sensor_id;sensor_type;location;lat;lon;timestamp;P1;durP1;ratioP1;P2;durP2;ratioP2
22826;SDS011;11580;52.562;13.418;2023-03-23T00:02:25;2.70;;;2.50;;
22826;SDS011;11580;52.562;13.418;2023-03-23T00:04:53;3.00;;;2.20;;
22826;SDS011;11580;52.562;13.418;2023-03-23T00:07:22;2.50;;;2.30;;
22826;SDS011;11580;52.562;13.418;2023-03-23T00:09:52;2.60;;;2.40;;
22826;SDS011;11580;52.562;13.418;2023-03-23T00:12:21;2.53;;;2.27;;
22826;SDS011;11580;52.562;13.418;2023-03-23T00:14:54;2.80;;;2.50;;
22826;SDS011;11580;52.562;13.418;2023-03-23T00:17:21;2.40;;;2.30;;
22826;SDS011;11580;52.562;13.418;2023-03-23T00:19:48;3.00;;;2.53;;
22826;SDS011;11580;52.562;13.418;2023-03-23T00:22:16;2.67;;;2.47;;
22826;SDS011;11580;52.562;13.418;2023-03-23T00:24:47;2.70;;;2.50;;
22826;SDS011;11580;52.562;13.418;2023-03-23T00:27:15;2.60;;;2.33;;
22826;SDS011;11580;52.562;13.418;2023-03-23T00:29:43;4.13;;;2.00;;
22826;SDS011;11580;52.562;13.418;2023-03-23T00:32:12;2.53;;;2.43;;
22826;SDS011;11580;52.562;13.418;2023-03-23T00:34:41;2.50;;;2.30;;
22826;SDS011;11580;52.562;13.418;2023-03-23T00:37:11;2.50;;;2.30;;
22826;SDS011;11580;52.562;13.418;2023-03-23T00:39:38;2.97;;;2.77;;
22826;SDS011;11580;52.562;13.418;2023-03-23T00:42:12;2.67;;;2.47;;
22826;SDS011;11580;52.562;13.418;2023-03-23T00:44:41;2.47;;;2.27;;
22826;SDS011;11580;52.562;13.418;2023-03-23T00:47:09;2.87;;;2.50;;
22826;SDS011;11580;52.562;13.418;2023-03-23T00:49:38;2.90;;;2.30;;
22826;SDS011;11580;52.562;13.418;2023-03-23T00:52:06;2.20;;;2.10;;
22826;SDS011;11580;52.562;13.418;2023-03-23T00:54:33;2.43;;;2.23;;
22826;SDS011;11580;52.562;13.418;2023-03-23T00:57:03;2.20;;;2.10;;
22826;SDS011;11580;52.562;13.418;2023-03-23T00:59:33;6.00;;;2.73;;
22826;SDS011;11580;52.562;13.418;2023-03-23T01:02:00;3.43;;;2.40;;
22826;SDS011;11580;52.562;13.418;2023-03-23T01:04:27;3.07;;;2.87;;
22826;SDS011;11580;52.562;13.418;2023-03-23T01:06:56;3.00;;;2.50;;
22826;SDS011;11580;52.562;13.418;2023-03-23T01:09:25;2.90;;;2.60;;
22826;SDS011;11580;52.562;13.418;2023-03-23T01:11:53;2.30;;;2.10;;
22826;SDS011;11580;52.562;13.418;2023-03-23T01:14:21;2.87;;;2.67;;
22826;SDS011;11580;52.562;13.418;2023-03-23T01:16:51;2.77;;;2.57;;
22826;SDS011;11580;52.562;13.418;2023-03-23T01:19:18;2.50;;;2.30;;
22826;SDS011;11580;52.562;13.418;2023-03-23T01:21:46;2.37;;;2.27;;
22826;SDS011;11580;52.562;13.418;2023-03-23T01:24:13;2.80;;;2.53;;
22826;SDS011;11580;52.562;13.418;2023-03-23T01:26:40;3.43;;;2.60;;
22826;SDS011;11580;52.562;13.418;2023-03-23T01:29:07;2.50;;;2.40;;
22826;SDS011;11580;52.562;13.418;2023-03-23T01:31:35;2.50;;;2.40;;
22826;SDS011;11580;52.562;13.418;2023-03-23T01:34:06;2.50;;;2.30;;
22826;SDS011;11580;52.562;13.418;2023-03-23T01:36:33;2.30;;;2.13;;
22826;SDS011;11580;52.562;13.418;2023-03-23T01:39:03;2.30;;;2.20;;
22826;SDS011;11580;52.562;13.418;2023-03-23T01:41:32;2.70;;;2.30;;
22826;SDS011;11580;52.562;13.418;2023-03-23T01:44:59;4.40;;;2.70;;
22826;SDS011;11580;52.562;13.418;2023-03-23T01:47:31;2.37;;;2.17;;
22826;SDS011;11580;52.562;13.418;2023-03-23T01:50:01;2.97;;;2.67;;
22826;SDS011;11580;52.562;13.418;2023-03-23T01:52:28;2.60;;;2.50;;
22826;SDS011;11580;52.562;13.418;2023-03-23T01:55:00;2.83;;;2.60;;
22826;SDS011;11580;52.562;13.418;2023-03-23T01:57:29;2.60;;;2.30;;
22826;SDS011;11580;52.562;13.418;2023-03-23T02:00:01;3.00;;;2.80;;
22826;SDS011;11580;52.562;13.418;2023-03-23T02:02:39;2.47;;;2.27;;
22826;SDS011;11580;52.562;13.418;2023-03-23T02:05:13;2.73;;;2.63;;
22826;SDS011;11580;52.562;13.418;2023-03-23T02:07:47;2.40;;;2.20;;
22826;SDS011;11580;52.562;13.418;2023-03-23T02:10:16;2.40;;;2.20;;
22826;SDS011;11580;52.562;13.418;2023-03-23T02:12:43;2.60;;;2.40;;
22826;SDS011;11580;52.562;13.418;2023-03-23T02:15:12;2.50;;;2.23;;
22826;SDS011;11580;52.562;13.418;2023-03-23T02:17:43;2.60;;;2.40;;
22826;SDS011;11580;52.562;13.418;2023-03-23T02:20:21;2.40;;;2.20;;
22826;SDS011;11580;52.562;13.418;2023-03-23T02:23:07;2.97;;;2.37;;
22826;SDS011;11580;52.562;13.418;2023-03-23T02:26:09;2.67;;;2.47;;
22826;SDS011;11580;52.562;13.418;2023-03-23T02:29:03;2.57;;;2.37;;
22826;SDS011;11580;52.562;13.418;2023-03-23T02:32:11;2.63;;;2.43;;
22826;SDS011;11580;52.562;13.418;2023-03-23T02:34:53;3.03;;;2.80;;
22826;SDS011;11580;52.562;13.418;2023-03-23T02:37:27;3.80;;;2.50;;
22826;SDS011;11580;52.562;13.418;2023-03-23T02:40:04;3.33;;;2.33;;
22826;SDS011;11580;52.562;13.418;2023-03-23T02:42:39;2.83;;;2.63;;
22826;SDS011;11580;52.562;13.418;2023-03-23T02:45:11;3.10;;;2.90;;
22826;SDS011;11580;52.562;13.418;2023-03-23T02:47:44;2.40;;;2.30;;
22826;SDS011;11580;52.562;13.418;2023-03-23T02:50:15;2.53;;;2.33;;
22826;SDS011;11580;52.562;13.418;2023-03-23T02:52:46;2.60;;;2.40;;
22826;SDS011;11580;52.562;13.418;2023-03-23T02:55:17;3.43;;;2.30;;
22826;SDS011;11580;52.562;13.418;2023-03-23T02:57:48;2.67;;;2.47;;
22826;SDS011;11580;52.562;13.418;2023-03-23T03:00:19;2.57;;;2.37;;
22826;SDS011;11580;52.562;13.418;2023-03-23T03:02:47;2.80;;;2.50;;
22826;SDS011;11580;52.562;13.418;2023-03-23T03:05:24;2.57;;;2.37;;
22826;SDS011;11580;52.562;13.418;2023-03-23T03:10:54;2.27;;;2.17;;
22826;SDS011;11580;52.562;13.418;2023-03-23T03:13:31;2.23;;;2.13;;
22826;SDS011;11580;52.562;13.418;2023-03-23T03:16:11;2.50;;;2.30;;
22826;SDS011;11580;52.562;13.418;2023-03-23T03:18:52;2.40;;;2.20;;
22826;SDS011;11580;52.562;13.418;2023-03-23T03:21:26;2.50;;;2.30;;
22826;SDS011;11580;52.562;13.418;2023-03-23T03:23:58;2.73;;;2.53;;
22826;SDS011;11580;52.562;13.418;2023-03-23T03:26:29;2.43;;;2.23;;
22826;SDS011;11580;52.562;13.418;2023-03-23T03:29:16;2.63;;;2.43;;
22826;SDS011;11580;52.562;13.418;2023-03-23T03:31:49;2.00;;;1.90;;
22826;SDS011;11580;52.562;13.418;2023-03-23T03:34:22;2.63;;;2.47;;
22826;SDS011;11580;52.562;13.418;2023-03-23T03:36:52;5.17;;;2.40;;
22826;SDS011;11580;52.562;13.418;2023-03-23T03:39:24;2.50;;;2.30;;
22826;SDS011;11580;52.562;13.418;2023-03-23T03:41:53;2.70;;;2.53;;
22826;SDS011;11580;52.562;13.418;2023-03-23T03:44:21;2.73;;;2.30;;
22826;SDS011;11580;52.562;13.418;2023-03-23T03:46:48;2.63;;;2.30;;
22826;SDS011;11580;52.562;13.418;2023-03-23T03:49:15;2.33;;;2.13;;
22826;SDS011;11580;52.562;13.418;2023-03-23T03:51:43;2.23;;;2.13;;
22826;SDS011;11580;52.562;13.418;2023-03-23T03:54:19;2.13;;;2.03;;
22826;SDS011;11580;52.562;13.418;2023-03-23T03:56:46;2.40;;;2.30;;
22826;SDS011;11580;52.562;13.418;2023-03-23T03:59:35;2.20;;;2.10;;
22826;SDS011;11580;52.562;13.418;2023-03-23T04:02:11;2.10;;;2.00;;
22826;SDS011;11580;52.562;13.418;2023-03-23T04:04:42;1.97;;;1.77;;
22826;SDS011;11580;52.562;13.418;2023-03-23T04:07:09;2.00;;;1.90;;
22826;SDS011;11580;52.562;13.418;2023-03-23T04:09:40;2.50;;;2.30;;
22826;SDS011;11580;52.562;13.418;2023-03-23T04:12:09;2.27;;;2.03;;
22826;SDS011;11580;52.562;13.418;2023-03-23T04:15:06;2.70;;;2.50;;
22826;SDS011;11580;52.562;13.418;2023-03-23T04:17:35;2.70;;;2.43;;
22826;SDS011;11580;52.562;13.418;2023-03-23T04:20:04;1.93;;;1.83;;
22826;SDS011;11580;52.562;13.418;2023-03-23T04:22:41;3.50;;;1.90;;
22826;SDS011;11580;52.562;13.418;2023-03-23T04:25:11;2.77;;;2.57;;
22826;SDS011;11580;52.562;13.418;2023-03-23T04:27:41;2.40;;;2.30;;
22826;SDS011;11580;52.562;13.418;2023-03-23T04:30:19;3.63;;;2.20;;
22826;SDS011;11580;52.562;13.418;2023-03-23T04:33:08;3.13;;;2.93;;
22826;SDS011;11580;52.562;13.418;2023-03-23T04:35:40;2.60;;;2.40;;
22826;SDS011;11580;52.562;13.418;2023-03-23T04:38:37;2.50;;;2.30;;
22826;SDS011;11580;52.562;13.418;2023-03-23T04:41:13;2.33;;;2.13;;
22826;SDS011;11580;52.562;13.418;2023-03-23T04:43:51;2.30;;;2.17;;
22826;SDS011;11580;52.562;13.418;2023-03-23T04:46:29;2.50;;;2.30;;
22826;SDS011;11580;52.562;13.418;2023-03-23T04:49:00;2.60;;;2.40;;
22826;SDS011;11580;52.562;13.418;2023-03-23T04:51:35;2.80;;;2.60;;
22826;SDS011;11580;52.562;13.418;2023-03-23T04:54:30;2.80;;;2.60;;
22826;SDS011;11580;52.562;13.418;2023-03-23T04:57:01;2.70;;;2.50;;
22826;SDS011;11580;52.562;13.418;2023-03-23T04:59:31;2.93;;;2.73;;
22826;SDS011;11580;52.562;13.418;2023-03-23T05:02:09;2.60;;;2.40;;
22826;SDS011;11580;52.562;13.418;2023-03-23T05:04:39;3.47;;;3.17;;
22826;SDS011;11580;52.562;13.418;2023-03-23T05:07:11;3.40;;;2.53;;
22826;SDS011;11580;52.562;13.418;2023-03-23T05:09:46;3.67;;;3.00;;
22826;SDS011;11580;52.562;13.418;2023-03-23T05:12:17;3.40;;;3.00;;
22826;SDS011;11580;52.562;13.418;2023-03-23T05:14:55;2.33;;;2.20;;
22826;SDS011;11580;52.562;13.418;2023-03-23T05:17:25;2.90;;;2.57;;
22826;SDS011;11580;52.562;13.418;2023-03-23T05:19:56;3.30;;;2.50;;
22826;SDS011;11580;52.562;13.418;2023-03-23T05:22:41;3.17;;;2.87;;
22826;SDS011;11580;52.562;13.418;2023-03-23T05:25:12;3.27;;;2.97;;
22826;SDS011;11580;52.562;13.418;2023-03-23T05:27:47;3.90;;;3.00;;
22826;SDS011;11580;52.562;13.418;2023-03-23T05:30:40;2.77;;;2.57;;
22826;SDS011;11580;52.562;13.418;2023-03-23T05:33:10;2.80;;;2.40;;
22826;SDS011;11580;52.562;13.418;2023-03-23T05:35:53;3.33;;;2.83;;
22826;SDS011;11580;52.562;13.418;2023-03-23T05:38:26;3.20;;;3.00;;
22826;SDS011;11580;52.562;13.418;2023-03-23T05:40:57;2.63;;;2.43;;
22826;SDS011;11580;52.562;13.418;2023-03-23T05:43:30;2.50;;;2.30;;
22826;SDS011;11580;52.562;13.418;2023-03-23T05:46:07;2.60;;;2.40;;
22826;SDS011;11580;52.562;13.418;2023-03-23T05:48:36;2.87;;;2.67;;
22826;SDS011;11580;52.562;13.418;2023-03-23T05:51:07;3.30;;;3.00;;
22826;SDS011;11580;52.562;13.418;2023-03-23T05:53:38;2.83;;;2.63;;
22826;SDS011;11580;52.562;13.418;2023-03-23T05:56:06;2.60;;;2.40;;
22826;SDS011;11580;52.562;13.418;2023-03-23T05:58:57;3.77;;;2.23;;
22826;SDS011;11580;52.562;13.418;2023-03-23T06:01:26;2.37;;;2.20;;
22826;SDS011;11580;52.562;13.418;2023-03-23T06:03:53;2.80;;;2.60;;
22826;SDS011;11580;52.562;13.418;2023-03-23T06:06:28;3.53;;;2.57;;
22826;SDS011;11580;52.562;13.418;2023-03-23T06:09:07;2.63;;;2.33;;
22826;SDS011;11580;52.562;13.418;2023-03-23T06:12:01;4.90;;;2.77;;
22826;SDS011;11580;52.562;13.418;2023-03-23T06:14:53;2.10;;;2.00;;
22826;SDS011;11580;52.562;13.418;2023-03-23T06:17:28;4.00;;;2.10;;
22826;SDS011;11580;52.562;13.418;2023-03-23T06:19:56;2.80;;;2.50;;
22826;SDS011;11580;52.562;13.418;2023-03-23T06:22:23;2.33;;;1.83;;
22826;SDS011;11580;52.562;13.418;2023-03-23T06:25:14;1.93;;;1.83;;
22826;SDS011;11580;52.562;13.418;2023-03-23T06:27:43;2.50;;;2.30;;
22826;SDS011;11580;52.562;13.418;2023-03-23T06:30:13;2.73;;;2.30;;
22826;SDS011;11580;52.562;13.418;2023-03-23T06:32:41;1.97;;;1.87;;
22826;SDS011;11580;52.562;13.418;2023-03-23T06:35:12;1.80;;;1.70;;
22826;SDS011;11580;52.562;13.418;2023-03-23T06:38:11;1.97;;;1.80;;
22826;SDS011;11580;52.562;13.418;2023-03-23T06:40:46;2.20;;;2.00;;
22826;SDS011;11580;52.562;13.418;2023-03-23T06:43:14;2.10;;;1.90;;
22826;SDS011;11580;52.562;13.418;2023-03-23T06:46:09;2.37;;;1.90;;
22826;SDS011;11580;52.562;13.418;2023-03-23T06:48:39;2.63;;;1.63;;
22826;SDS011;11580;52.562;13.418;2023-03-23T06:51:09;1.80;;;1.70;;
22826;SDS011;11580;52.562;13.418;2023-03-23T06:53:39;2.07;;;1.93;;
22826;SDS011;11580;52.562;13.418;2023-03-23T06:56:10;2.13;;;1.73;;
22826;SDS011;11580;52.562;13.418;2023-03-23T06:58:39;2.00;;;1.90;;
22826;SDS011;11580;52.562;13.418;2023-03-23T07:01:09;2.07;;;1.83;;
22826;SDS011;11580;52.562;13.418;2023-03-23T07:03:40;3.10;;;1.90;;
22826;SDS011;11580;52.562;13.418;2023-03-23T07:06:10;2.80;;;2.00;;
22826;SDS011;11580;52.562;13.418;2023-03-23T07:08:46;2.93;;;2.10;;
22826;SDS011;11580;52.562;13.418;2023-03-23T07:11:18;2.20;;;2.00;;
22826;SDS011;11580;52.562;13.418;2023-03-23T07:13:45;2.17;;;1.87;;
22826;SDS011;11580;52.562;13.418;2023-03-23T07:16:16;3.20;;;2.07;;
22826;SDS011;11580;52.562;13.418;2023-03-23T07:18:43;2.70;;;2.10;;
22826;SDS011;11580;52.562;13.418;2023-03-23T07:21:11;2.30;;;2.10;;
22826;SDS011;11580;52.562;13.418;2023-03-23T07:23:39;2.20;;;2.00;;
22826;SDS011;11580;52.562;13.418;2023-03-23T07:26:14;2.30;;;2.10;;
22826;SDS011;11580;52.562;13.418;2023-03-23T07:28:48;1.90;;;1.80;;
22826;SDS011;11580;52.562;13.418;2023-03-23T07:31:48;2.63;;;2.10;;
22826;SDS011;11580;52.562;13.418;2023-03-23T07:34:17;2.80;;;1.97;;
22826;SDS011;11580;52.562;13.418;2023-03-23T07:37:11;2.50;;;2.40;;
22826;SDS011;11580;52.562;13.418;2023-03-23T07:39:41;2.00;;;1.90;;
22826;SDS011;11580;52.562;13.418;2023-03-23T07:42:09;2.97;;;2.60;;
22826;SDS011;11580;52.562;13.418;2023-03-23T07:44:45;2.13;;;2.03;;
22826;SDS011;11580;52.562;13.418;2023-03-23T07:47:14;1.90;;;1.73;;
22826;SDS011;11580;52.562;13.418;2023-03-23T07:49:44;1.90;;;1.80;;
22826;SDS011;11580;52.562;13.418;2023-03-23T07:52:35;2.03;;;1.83;;
22826;SDS011;11580;52.562;13.418;2023-03-23T07:55:04;3.17;;;2.10;;
22826;SDS011;11580;52.562;13.418;2023-03-23T07:57:59;2.60;;;2.27;;
22826;SDS011;11580;52.562;13.418;2023-03-23T08:00:28;2.30;;;2.20;;
22826;SDS011;11580;52.562;13.418;2023-03-23T08:02:58;3.73;;;2.03;;
22826;SDS011;11580;52.562;13.418;2023-03-23T08:05:33;2.27;;;2.10;;
22826;SDS011;11580;52.562;13.418;2023-03-23T08:08:20;5.33;;;2.57;;
22826;SDS011;11580;52.562;13.418;2023-03-23T08:11:06;2.40;;;2.20;;
22826;SDS011;11580;52.562;13.418;2023-03-23T08:13:52;2.17;;;1.97;;
22826;SDS011;11580;52.562;13.418;2023-03-23T08:16:19;2.17;;;1.97;;
22826;SDS011;11580;52.562;13.418;2023-03-23T08:19:07;2.77;;;2.30;;
22826;SDS011;11580;52.562;13.418;2023-03-23T08:21:53;2.20;;;1.97;;
22826;SDS011;11580;52.562;13.418;2023-03-23T08:24:39;2.10;;;2.00;;
22826;SDS011;11580;52.562;13.418;2023-03-23T08:27:36;2.80;;;2.27;;
22826;SDS011;11580;52.562;13.418;2023-03-23T08:30:16;2.60;;;2.40;;
22826;SDS011;11580;52.562;13.418;2023-03-23T08:33:06;2.10;;;1.97;;
22826;SDS011;11580;52.562;13.418;2023-03-23T08:36:03;2.70;;;2.50;;
22826;SDS011;11580;52.562;13.418;2023-03-23T08:38:51;2.93;;;2.73;;
22826;SDS011;11580;52.562;13.418;2023-03-23T08:41:33;4.47;;;2.20;;
22826;SDS011;11580;52.562;13.418;2023-03-23T08:44:37;1.83;;;1.70;;
22826;SDS011;11580;52.562;13.418;2023-03-23T08:47:24;1.80;;;1.70;;
22826;SDS011;11580;52.562;13.418;2023-03-23T08:50:15;2.20;;;2.00;;
22826;SDS011;11580;52.562;13.418;2023-03-23T08:53:00;2.23;;;2.10;;
22826;SDS011;11580;52.562;13.418;2023-03-23T08:55:36;2.10;;;2.00;;
22826;SDS011;11580;52.562;13.418;2023-03-23T08:58:21;2.53;;;2.27;;
22826;SDS011;11580;52.562;13.418;2023-03-23T09:01:09;3.47;;;2.40;;
22826;SDS011;11580;52.562;13.418;2023-03-23T09:03:52;3.07;;;2.40;;
22826;SDS011;11580;52.562;13.418;2023-03-23T09:06:19;4.70;;;2.27;;
22826;SDS011;11580;52.562;13.418;2023-03-23T09:08:48;2.37;;;2.13;;
22826;SDS011;11580;52.562;13.418;2023-03-23T09:11:16;2.27;;;2.10;;
22826;SDS011;11580;52.562;13.418;2023-03-23T09:13:43;2.87;;;2.20;;
22826;SDS011;11580;52.562;13.418;2023-03-23T09:16:11;1.80;;;1.70;;
22826;SDS011;11580;52.562;13.418;2023-03-23T09:18:38;4.47;;;2.33;;
22826;SDS011;11580;52.562;13.418;2023-03-23T09:21:05;2.47;;;2.30;;
22826;SDS011;11580;52.562;13.418;2023-03-23T09:23:33;4.10;;;2.97;;
22826;SDS011;11580;52.562;13.418;2023-03-23T09:26:02;2.60;;;2.40;;
22826;SDS011;11580;52.562;13.418;2023-03-23T09:28:30;2.40;;;2.20;;
22826;SDS011;11580;52.562;13.418;2023-03-23T09:30:57;2.20;;;2.10;;
22826;SDS011;11580;52.562;13.418;2023-03-23T09:33:25;2.30;;;1.90;;
22826;SDS011;11580;52.562;13.418;2023-03-23T09:35:54;3.20;;;2.00;;
22826;SDS011;11580;52.562;13.418;2023-03-23T09:38:21;1.90;;;1.80;;
22826;SDS011;11580;52.562;13.418;2023-03-23T09:40:52;4.13;;;1.90;;
22826;SDS011;11580;52.562;13.418;2023-03-23T09:43:33;3.10;;;2.80;;
22826;SDS011;11580;52.562;13.418;2023-03-23T09:46:32;1.93;;;1.80;;
22826;SDS011;11580;52.562;13.418;2023-03-23T09:49:13;2.70;;;2.27;;
22826;SDS011;11580;52.562;13.418;2023-03-23T09:51:49;2.03;;;1.80;;
22826;SDS011;11580;52.562;13.418;2023-03-23T09:54:23;2.13;;;2.03;;
22826;SDS011;11580;52.562;13.418;2023-03-23T09:56:55;1.80;;;1.70;;
22826;SDS011;11580;52.562;13.418;2023-03-23T09:59:29;2.93;;;2.40;;
22826;SDS011;11580;52.562;13.418;2023-03-23T10:02:08;2.60;;;2.40;;
22826;SDS011;11580;52.562;13.418;2023-03-23T10:04:43;3.20;;;2.23;;
22826;SDS011;11580;52.562;13.418;2023-03-23T10:07:13;2.20;;;2.03;;
22826;SDS011;11580;52.562;13.418;2023-03-23T10:09:44;2.27;;;2.17;;
22826;SDS011;11580;52.562;13.418;2023-03-23T10:12:18;1.83;;;1.73;;
22826;SDS011;11580;52.562;13.418;2023-03-23T10:14:59;2.00;;;1.67;;
22826;SDS011;11580;52.562;13.418;2023-03-23T10:17:39;2.10;;;2.00;;
22826;SDS011;11580;52.562;13.418;2023-03-23T10:20:19;1.33;;;1.23;;
22826;SDS011;11580;52.562;13.418;2023-03-23T10:22:58;1.83;;;1.73;;
22826;SDS011;11580;52.562;13.418;2023-03-23T10:25:40;1.97;;;1.63;;
22826;SDS011;11580;52.562;13.418;2023-03-23T10:28:12;1.80;;;1.70;;
22826;SDS011;11580;52.562;13.418;2023-03-23T10:30:46;2.20;;;2.00;;
22826;SDS011;11580;52.562;13.418;2023-03-23T10:33:20;2.17;;;1.80;;
22826;SDS011;11580;52.562;13.418;2023-03-23T10:35:56;1.53;;;1.43;;
22826;SDS011;11580;52.562;13.418;2023-03-23T10:38:31;1.63;;;1.53;;
22826;SDS011;11580;52.562;13.418;2023-03-23T10:41:04;2.00;;;1.80;;
22826;SDS011;11580;52.562;13.418;2023-03-23T10:43:37;1.80;;;1.70;;
22826;SDS011;11580;52.562;13.418;2023-03-23T10:46:11;1.80;;;1.70;;
22826;SDS011;11580;52.562;13.418;2023-03-23T10:48:53;1.50;;;1.40;;
22826;SDS011;11580;52.562;13.418;2023-03-23T10:51:24;1.90;;;1.70;;
22826;SDS011;11580;52.562;13.418;2023-03-23T10:54:00;1.67;;;1.57;;
22826;SDS011;11580;52.562;13.418;2023-03-23T10:56:34;1.93;;;1.50;;
22826;SDS011;11580;52.562;13.418;2023-03-23T10:59:12;1.50;;;1.40;;
22826;SDS011;11580;52.562;13.418;2023-03-23T11:01:44;2.03;;;1.83;;
22826;SDS011;11580;52.562;13.418;2023-03-23T11:04:16;2.10;;;2.00;;
22826;SDS011;11580;52.562;13.418;2023-03-23T11:06:45;1.57;;;1.47;;
22826;SDS011;11580;52.562;13.418;2023-03-23T11:09:18;2.07;;;1.70;;
22826;SDS011;11580;52.562;13.418;2023-03-23T11:11:48;1.60;;;1.50;;
22826;SDS011;11580;52.562;13.418;2023-03-23T11:14:19;2.40;;;2.20;;
22826;SDS011;11580;52.562;13.418;2023-03-23T11:16:55;2.13;;;1.90;;
22826;SDS011;11580;52.562;13.418;2023-03-23T11:19:26;2.07;;;1.63;;
22826;SDS011;11580;52.562;13.418;2023-03-23T11:21:57;2.00;;;1.90;;
22826;SDS011;11580;52.562;13.418;2023-03-23T11:24:33;1.73;;;1.63;;
22826;SDS011;11580;52.562;13.418;2023-03-23T11:27:07;1.60;;;1.50;;
22826;SDS011;11580;52.562;13.418;2023-03-23T11:29:37;1.73;;;1.63;;
22826;SDS011;11580;52.562;13.418;2023-03-23T11:32:18;1.60;;;1.50;;
22826;SDS011;11580;52.562;13.418;2023-03-23T11:34:54;2.80;;;1.80;;
22826;SDS011;11580;52.562;13.418;2023-03-23T11:37:27;1.77;;;1.67;;
22826;SDS011;11580;52.562;13.418;2023-03-23T11:40:01;1.93;;;1.73;;
22826;SDS011;11580;52.562;13.418;2023-03-23T11:42:44;1.77;;;1.67;;
22826;SDS011;11580;52.562;13.418;2023-03-23T11:45:16;2.87;;;1.87;;
22826;SDS011;11580;52.562;13.418;2023-03-23T11:47:54;1.70;;;1.60;;
22826;SDS011;11580;52.562;13.418;2023-03-23T11:50:43;2.37;;;2.07;;
22826;SDS011;11580;52.562;13.418;2023-03-23T11:53:18;2.03;;;1.87;;
22826;SDS011;11580;52.562;13.418;2023-03-23T11:56:00;2.97;;;2.10;;
22826;SDS011;11580;52.562;13.418;2023-03-23T11:58:37;2.27;;;1.73;;
22826;SDS011;11580;52.562;13.418;2023-03-23T12:01:06;2.03;;;1.73;;
22826;SDS011;11580;52.562;13.418;2023-03-23T12:07:02;1.60;;;1.50;;
22826;SDS011;11580;52.562;13.418;2023-03-23T12:09:47;1.93;;;1.83;;
22826;SDS011;11580;52.562;13.418;2023-03-23T12:12:30;1.90;;;1.70;;
22826;SDS011;11580;52.562;13.418;2023-03-23T12:15:10;1.60;;;1.50;;
22826;SDS011;11580;52.562;13.418;2023-03-23T12:17:51;1.90;;;1.70;;
22826;SDS011;11580;52.562;13.418;2023-03-23T12:20:35;1.83;;;1.73;;
22826;SDS011;11580;52.562;13.418;2023-03-23T12:23:18;1.40;;;1.30;;
22826;SDS011;11580;52.562;13.418;2023-03-23T12:32:01;2.73;;;1.83;;
22826;SDS011;11580;52.562;13.418;2023-03-23T12:34:58;1.50;;;1.40;;
22826;SDS011;11580;52.562;13.418;2023-03-23T12:37:43;1.80;;;1.70;;
22826;SDS011;11580;52.562;13.418;2023-03-23T12:40:25;1.70;;;1.60;;
22826;SDS011;11580;52.562;13.418;2023-03-23T12:43:08;2.27;;;2.07;;
22826;SDS011;11580;52.562;13.418;2023-03-23T12:45:50;2.17;;;2.00;;
22826;SDS011;11580;52.562;13.418;2023-03-23T12:48:55;2.87;;;1.90;;
22826;SDS011;11580;52.562;13.418;2023-03-23T12:51:30;2.10;;;1.60;;
22826;SDS011;11580;52.562;13.418;2023-03-23T12:54:07;1.87;;;1.77;;
22826;SDS011;11580;52.562;13.418;2023-03-23T12:56:41;1.53;;;1.43;;
22826;SDS011;11580;52.562;13.418;2023-03-23T12:59:17;1.60;;;1.50;;
22826;SDS011;11580;52.562;13.418;2023-03-23T13:01:54;1.73;;;1.60;;
22826;SDS011;11580;52.562;13.418;2023-03-23T13:04:32;1.80;;;1.70;;
22826;SDS011;11580;52.562;13.418;2023-03-23T13:07:05;1.70;;;1.60;;
22826;SDS011;11580;52.562;13.418;2023-03-23T13:09:48;2.10;;;1.83;;
22826;SDS011;11580;52.562;13.418;2023-03-23T13:12:22;2.50;;;1.83;;
22826;SDS011;11580;52.562;13.418;2023-03-23T13:14:55;1.80;;;1.70;;
22826;SDS011;11580;52.562;13.418;2023-03-23T13:17:35;2.90;;;2.20;;
22826;SDS011;11580;52.562;13.418;2023-03-23T13:20:21;1.90;;;1.80;;
22826;SDS011;11580;52.562;13.418;2023-03-23T13:23:16;2.20;;;1.70;;
22826;SDS011;11580;52.562;13.418;2023-03-23T13:25:50;1.90;;;1.73;;
22826;SDS011;11580;52.562;13.418;2023-03-23T13:28:23;1.60;;;1.50;;
22826;SDS011;11580;52.562;13.418;2023-03-23T13:30:57;1.90;;;1.80;;
22826;SDS011;11580;52.562;13.418;2023-03-23T13:33:32;1.70;;;1.60;;
22826;SDS011;11580;52.562;13.418;2023-03-23T13:36:03;4.70;;;2.07;;
22826;SDS011;11580;52.562;13.418;2023-03-23T13:38:36;1.80;;;1.70;;
22826;SDS011;11580;52.562;13.418;2023-03-23T13:41:13;3.63;;;1.80;;
22826;SDS011;11580;52.562;13.418;2023-03-23T13:43:43;2.10;;;1.40;;
22826;SDS011;11580;52.562;13.418;2023-03-23T13:46:12;2.30;;;1.73;;
22826;SDS011;11580;52.562;13.418;2023-03-23T13:49:03;3.07;;;1.60;;
22826;SDS011;11580;52.562;13.418;2023-03-23T13:51:47;2.20;;;2.10;;
22826;SDS011;11580;52.562;13.418;2023-03-23T13:54:29;2.10;;;1.90;;
22826;SDS011;11580;52.562;13.418;2023-03-23T13:57:20;2.03;;;1.60;;
22826;SDS011;11580;52.562;13.418;2023-03-23T14:00:11;2.17;;;1.77;;
22826;SDS011;11580;52.562;13.418;2023-03-23T14:03:02;1.80;;;1.43;;
22826;SDS011;11580;52.562;13.418;2023-03-23T14:05:37;2.00;;;1.90;;
22826;SDS011;11580;52.562;13.418;2023-03-23T14:08:13;2.13;;;1.70;;
22826;SDS011;11580;52.562;13.418;2023-03-23T14:10:50;1.67;;;1.53;;
22826;SDS011;11580;52.562;13.418;2023-03-23T14:13:25;1.93;;;1.77;;
22826;SDS011;11580;52.562;13.418;2023-03-23T14:15:59;2.10;;;1.70;;
22826;SDS011;11580;52.562;13.418;2023-03-23T14:18:31;2.30;;;1.70;;
22826;SDS011;11580;52.562;13.418;2023-03-23T14:21:02;1.43;;;1.33;;
22826;SDS011;11580;52.562;13.418;2023-03-23T14:23:31;2.20;;;1.77;;
22826;SDS011;11580;52.562;13.418;2023-03-23T14:26:01;2.03;;;1.70;;
22826;SDS011;11580;52.562;13.418;2023-03-23T14:28:39;3.53;;;1.50;;
22826;SDS011;11580;52.562;13.418;2023-03-23T14:31:14;2.03;;;1.50;;
22826;SDS011;11580;52.562;13.418;2023-03-23T14:33:46;3.63;;;1.77;;
22826;SDS011;11580;52.562;13.418;2023-03-23T14:36:14;2.70;;;2.00;;
22826;SDS011;11580;52.562;13.418;2023-03-23T14:38:47;1.77;;;1.67;;
22826;SDS011;11580;52.562;13.418;2023-03-23T14:41:29;1.50;;;1.40;;
22826;SDS011;11580;52.562;13.418;2023-03-23T14:44:00;1.67;;;1.57;;
22826;SDS011;11580;52.562;13.418;2023-03-23T14:46:29;1.87;;;1.60;;
22826;SDS011;11580;52.562;13.418;2023-03-23T14:48:59;1.87;;;1.77;;
22826;SDS011;11580;52.562;13.418;2023-03-23T14:51:28;1.80;;;1.70;;
22826;SDS011;11580;52.562;13.418;2023-03-23T14:53:57;2.00;;;1.70;;
22826;SDS011;11580;52.562;13.418;2023-03-23T14:56:31;2.30;;;1.60;;
22826;SDS011;11580;52.562;13.418;2023-03-23T14:59:05;2.13;;;1.70;;
22826;SDS011;11580;52.562;13.418;2023-03-23T15:01:35;1.90;;;1.80;;
22826;SDS011;11580;52.562;13.418;2023-03-23T15:04:06;2.37;;;2.17;;
22826;SDS011;11580;52.562;13.418;2023-03-23T15:06:39;1.60;;;1.50;;
22826;SDS011;11580;52.562;13.418;2023-03-23T15:09:11;1.53;;;1.40;;
22826;SDS011;11580;52.562;13.418;2023-03-23T15:11:49;1.93;;;1.77;;
22826;SDS011;11580;52.562;13.418;2023-03-23T15:14:24;1.50;;;1.33;;
22826;SDS011;11580;52.562;13.418;2023-03-23T15:16:56;1.57;;;1.30;;
22826;SDS011;11580;52.562;13.418;2023-03-23T15:19:27;3.70;;;1.63;;
22826;SDS011;11580;52.562;13.418;2023-03-23T15:22:04;3.20;;;1.97;;
22826;SDS011;11580;52.562;13.418;2023-03-23T15:24:33;2.67;;;1.80;;
22826;SDS011;11580;52.562;13.418;2023-03-23T15:27:10;1.60;;;1.50;;
22826;SDS011;11580;52.562;13.418;2023-03-23T15:29:51;2.13;;;1.60;;
22826;SDS011;11580;52.562;13.418;2023-03-23T15:32:21;2.10;;;1.57;;
22826;SDS011;11580;52.562;13.418;2023-03-23T15:34:51;1.97;;;1.87;;